Terminal Aerodrome Forecast
Issued by NWS North Platte, NE

Home | Current Version | Previous Version | Graphics & Text | Print | Product List | Glossary On
Versions: 1 2 3 4 5 6 7 8 9 10 11 12 13
126
FTUS43 KLBF 202320
TAFVTN
TAF
KVTN 202320Z 2100/2124 27005KT P6SM BKN150
     FM212100 30009KT P6SM SCT150=

USA.gov is the U.S. government's official web portal to all federal, state and local government web resources and services.